createdAt,value
2018-01-08T00:00:20.547Z,3.41
2018-01-08T00:01:20.541Z,3.41
2018-01-08T00:02:20.531Z,3.40
2018-01-08T00:03:20.521Z,3.36
2018-01-08T00:04:20.513Z,3.40
2018-01-08T00:05:20.503Z,3.42
2018-01-08T00:06:20.492Z,3.32
2018-01-08T00:07:20.484Z,3.36
2018-01-08T00:08:20.477Z,3.34
2018-01-08T00:09:20.467Z,3.34
2018-01-08T00:10:20.461Z,3.41
2018-01-08T00:11:20.463Z,3.36
2018-01-08T00:12:20.438Z,3.32
2018-01-08T00:13:20.428Z,3.29
2018-01-08T00:14:20.420Z,3.32
2018-01-08T00:15:20.412Z,3.26
2018-01-08T00:16:20.401Z,3.25
2018-01-08T00:17:20.397Z,3.34
2018-01-08T00:18:20.385Z,3.34
2018-01-08T00:19:20.376Z,3.22
2018-01-08T00:20:20.367Z,3.32
2018-01-08T00:21:20.356Z,3.29
2018-01-08T00:22:20.348Z,3.36
2018-01-08T00:23:20.341Z,3.28
2018-01-08T00:24:20.332Z,3.26
2018-01-08T00:25:20.319Z,3.31
2018-01-08T00:26:20.310Z,3.31
2018-01-08T00:27:20.299Z,3.29
2018-01-08T00:28:20.297Z,3.26
2018-01-08T00:29:20.284Z,3.25
2018-01-08T00:30:20.272Z,3.29
2018-01-08T00:31:20.265Z,3.29
2018-01-08T00:32:20.253Z,3.36
2018-01-08T00:33:20.246Z,3.37
2018-01-08T00:34:20.235Z,3.37
2018-01-08T00:35:20.227Z,3.36
2018-01-08T00:36:20.219Z,3.37
2018-01-08T00:37:20.207Z,3.47
2018-01-08T00:38:20.201Z,3.37
2018-01-08T00:39:20.192Z,3.45
2018-01-08T00:40:20.182Z,3.41
2018-01-08T00:41:20.218Z,3.34
2018-01-08T00:42:20.162Z,3.37
2018-01-08T00:43:20.153Z,3.37
2018-01-08T00:44:20.146Z,3.32
2018-01-08T00:45:20.134Z,3.36
2018-01-08T00:46:20.127Z,3.41
2018-01-08T00:47:20.125Z,3.41
2018-01-08T00:48:20.107Z,3.41
2018-01-08T00:49:20.098Z,3.36
2018-01-08T00:50:20.089Z,3.44
2018-01-08T00:51:20.082Z,3.45
2018-01-08T00:52:20.073Z,3.47
2018-01-08T00:53:20.064Z,3.41
2018-01-08T00:54:20.055Z,3.40
2018-01-08T00:55:20.046Z,3.37
2018-01-08T00:56:20.036Z,3.22
2018-01-08T00:57:20.026Z,3.36
2018-01-08T00:58:20.017Z,3.21
2018-01-08T00:59:20.008Z,3.23
2018-01-08T01:00:19.998Z,3.26
2018-01-08T01:01:19.989Z,3.26
2018-01-08T01:02:19.981Z,3.26
2018-01-08T01:03:19.973Z,3.28
2018-01-08T01:04:19.962Z,3.37
2018-01-08T01:05:19.956Z,3.26
2018-01-08T01:06:19.944Z,3.32
2018-01-08T01:07:19.934Z,3.28
2018-01-08T01:08:19.926Z,3.31
2018-01-08T01:09:19.919Z,3.31
2018-01-08T01:10:19.909Z,3.28
2018-01-08T01:11:19.899Z,3.29
2018-01-08T01:12:19.890Z,3.34
2018-01-08T01:13:19.887Z,3.22
2018-01-08T01:14:19.872Z,3.29
2018-01-08T01:15:19.863Z,3.26
2018-01-08T01:16:19.853Z,3.22
2018-01-08T01:17:19.847Z,3.28
2018-01-08T01:18:19.836Z,3.19
2018-01-08T01:19:19.825Z,3.19
2018-01-08T01:20:19.837Z,3.19
2018-01-08T01:21:19.808Z,3.26
2018-01-08T01:22:19.800Z,3.18
2018-01-08T01:23:19.787Z,3.18
2018-01-08T01:24:19.778Z,3.25
2018-01-08T01:25:19.771Z,3.21
2018-01-08T01:26:19.767Z,3.29
2018-01-08T01:27:19.753Z,3.18
2018-01-08T01:28:19.741Z,3.19
2018-01-08T01:29:19.734Z,3.16
2018-01-08T01:30:19.725Z,3.18
2018-01-08T01:31:19.713Z,3.16
2018-01-08T01:32:19.707Z,3.18
2018-01-08T01:33:19.696Z,3.25
2018-01-08T01:34:19.687Z,3.26
2018-01-08T01:35:19.681Z,3.28
2018-01-08T01:36:19.673Z,3.26
2018-01-08T01:37:19.664Z,3.26
2018-01-08T01:38:19.652Z,3.19
2018-01-08T01:39:19.640Z,3.16
2018-01-08T01:40:19.633Z,3.13
2018-01-08T01:41:19.623Z,3.10
2018-01-08T01:42:19.614Z,3.11
2018-01-08T01:43:19.603Z,3.11
2018-01-08T01:44:19.594Z,3.13
2018-01-08T01:45:19.587Z,3.13
2018-01-08T01:46:19.578Z,3.13
2018-01-08T01:47:19.568Z,3.13
2018-01-08T01:48:19.558Z,3.11
2018-01-08T01:49:19.552Z,3.13
2018-01-08T01:50:19.539Z,3.16
2018-01-08T01:51:19.530Z,3.19
2018-01-08T01:52:19.521Z,3.10
2018-01-08T01:53:19.512Z,3.05
2018-01-08T01:54:19.503Z,3.11
2018-01-08T01:55:19.492Z,3.16
2018-01-08T01:56:19.483Z,3.08
2018-01-08T01:57:19.475Z,3.04
2018-01-08T01:58:19.465Z,3.08
2018-01-08T01:59:19.458Z,3.13
2018-01-08T02:00:19.446Z,3.21
2018-01-08T02:01:19.436Z,3.18
2018-01-08T02:02:19.427Z,3.16
2018-01-08T02:03:19.418Z,3.19
2018-01-08T02:04:19.407Z,3.14
2018-01-08T02:05:19.399Z,3.11
2018-01-08T02:06:19.390Z,3.13
2018-01-08T02:07:19.386Z,3.18
2018-01-08T02:08:19.371Z,3.13
2018-01-08T02:09:19.365Z,3.18
2018-01-08T02:10:19.353Z,3.11
2018-01-08T02:11:19.348Z,3.18
2018-01-08T02:12:19.339Z,3.11
2018-01-08T02:13:19.325Z,3.19
2018-01-08T02:14:19.317Z,3.04
2018-01-08T02:15:19.305Z,3.07
2018-01-08T02:16:19.297Z,3.07
2018-01-08T02:17:19.290Z,3.14
2018-01-08T02:18:19.278Z,3.18
2018-01-08T02:19:19.268Z,3.07
2018-01-08T02:20:19.261Z,3.11
2018-01-08T02:21:19.250Z,3.08
2018-01-08T02:22:19.242Z,3.08
2018-01-08T02:23:19.230Z,3.07
2018-01-08T02:24:19.221Z,2.95
2018-01-08T02:25:19.212Z,2.95
2018-01-08T02:26:19.203Z,2.98
2018-01-08T02:27:19.196Z,2.93
2018-01-08T02:28:19.187Z,2.98
2018-01-08T02:29:19.174Z,3.03
2018-01-08T02:30:19.171Z,3.04
2018-01-08T02:31:19.157Z,3.18
2018-01-08T02:32:19.147Z,3.13
2018-01-08T02:33:19.137Z,3.07
2018-01-08T02:34:19.129Z,3.10
2018-01-08T02:35:19.117Z,2.97
2018-01-08T02:36:19.113Z,3.05
2018-01-08T02:37:19.104Z,2.97
2018-01-08T02:38:19.135Z,3.07
2018-01-08T02:39:19.081Z,2.97
2018-01-08T02:40:19.073Z,3.05
2018-01-08T02:41:19.064Z,3.05
2018-01-08T02:42:19.054Z,2.93
2018-01-08T02:43:19.045Z,3.04
2018-01-08T02:44:19.037Z,3.01
2018-01-08T02:45:19.024Z,3.14
2018-01-08T02:46:19.024Z,3.08
2018-01-08T02:47:19.005Z,3.08
2018-01-08T02:48:19.002Z,3.08
2018-01-08T02:49:18.987Z,3.08
2018-01-08T02:50:18.979Z,3.04
2018-01-08T02:51:18.968Z,3.04
2018-01-08T02:52:18.961Z,3.00
2018-01-08T02:53:18.948Z,3.04
2018-01-08T02:54:18.939Z,2.95
2018-01-08T02:55:18.934Z,2.95
2018-01-08T02:56:18.934Z,3.03
2018-01-08T02:57:18.912Z,3.03
2018-01-08T02:58:18.900Z,3.03
2018-01-08T02:59:18.894Z,3.05
2018-01-08T03:00:18.882Z,3.07
2018-01-08T03:01:18.874Z,3.00
2018-01-08T03:02:18.865Z,3.10
2018-01-08T03:03:18.855Z,3.07
2018-01-08T03:04:18.844Z,3.05
2018-01-08T03:05:18.839Z,3.03
2018-01-08T03:06:18.831Z,3.11
2018-01-08T03:07:18.817Z,3.11
2018-01-08T03:08:18.807Z,3.05
2018-01-08T03:09:18.799Z,3.13
2018-01-08T03:10:18.788Z,3.18
2018-01-08T03:11:18.781Z,3.11
2018-01-08T03:12:18.772Z,3.08
2018-01-08T03:13:18.760Z,3.10
2018-01-08T03:14:18.751Z,3.10
2018-01-08T03:15:18.741Z,3.11
2018-01-08T03:16:18.731Z,3.13
2018-01-08T03:17:18.745Z,3.13
2018-01-08T03:18:18.715Z,3.04
2018-01-08T03:19:18.704Z,3.08
2018-01-08T03:20:18.696Z,3.08
2018-01-08T03:21:18.688Z,3.16
2018-01-08T03:22:18.676Z,3.11
2018-01-08T03:23:18.667Z,3.11
2018-01-08T03:24:18.659Z,3.08
2018-01-08T03:25:18.650Z,3.03
2018-01-08T03:26:18.645Z,3.10
2018-01-08T03:27:18.633Z,3.11
2018-01-08T03:28:18.620Z,3.13
2018-01-08T03:29:18.616Z,3.16
2018-01-08T03:30:18.606Z,3.22
2018-01-08T03:31:18.597Z,3.21
2018-01-08T03:32:18.585Z,3.16
2018-01-08T03:33:18.574Z,3.25
2018-01-08T03:34:18.567Z,3.32
2018-01-08T03:35:18.558Z,3.13
2018-01-08T03:36:18.546Z,3.18
2018-01-08T03:37:18.537Z,3.16
2018-01-08T03:38:18.528Z,3.25
2018-01-08T03:39:18.520Z,3.26
2018-01-08T03:40:18.511Z,3.16
2018-01-08T03:41:18.501Z,3.18
2018-01-08T03:42:18.495Z,3.13
2018-01-08T03:43:18.482Z,3.22
2018-01-08T03:44:18.473Z,3.16
2018-01-08T03:45:18.466Z,3.21
2018-01-08T03:46:18.458Z,3.18
2018-01-08T03:47:18.447Z,3.23
2018-01-08T03:48:18.439Z,3.34
2018-01-08T03:49:18.428Z,3.34
2018-01-08T03:50:18.421Z,3.31
2018-01-08T03:51:18.410Z,3.14
2018-01-08T03:52:18.403Z,3.18
2018-01-08T03:53:18.392Z,3.21
2018-01-08T03:54:18.385Z,3.10
2018-01-08T03:55:18.373Z,3.08
2018-01-08T03:56:18.366Z,3.13
2018-01-08T03:57:18.356Z,3.10
2018-01-08T03:58:18.347Z,3.01
2018-01-08T03:59:18.336Z,3.05
2018-01-08T04:00:18.329Z,3.07
2018-01-08T04:01:18.318Z,3.11
2018-01-08T04:02:18.310Z,3.07
2018-01-08T04:03:18.299Z,3.11
2018-01-08T04:04:18.292Z,3.07
2018-01-08T04:05:18.285Z,3.04
2018-01-08T04:06:18.273Z,2.97
2018-01-08T04:07:18.264Z,2.95
2018-01-08T04:08:18.253Z,2.95
2018-01-08T04:09:18.243Z,2.95
2018-01-08T04:10:18.236Z,2.97
2018-01-08T04:11:18.250Z,3.00
2018-01-08T04:12:18.215Z,3.01
2018-01-08T04:13:18.206Z,3.01
2018-01-08T04:14:18.201Z,3.01
2018-01-08T04:15:18.188Z,3.03
2018-01-08T04:16:18.179Z,3.04
2018-01-08T04:17:18.176Z,3.04
2018-01-08T04:18:39.166Z,3.01
2018-01-08T04:19:18.151Z,2.98
2018-01-08T04:20:18.142Z,2.97
2018-01-08T04:21:18.139Z,2.98
2018-01-08T04:22:18.122Z,2.93
2018-01-08T04:23:18.152Z,2.95
2018-01-08T04:24:18.107Z,2.93
2018-01-08T04:25:18.094Z,3.01
2018-01-08T04:26:18.087Z,2.93
2018-01-08T04:27:18.075Z,2.97
2018-01-08T04:28:18.065Z,2.98
2018-01-08T04:29:18.056Z,3.00
2018-01-08T04:30:18.048Z,2.98
2018-01-08T04:31:18.038Z,2.97
2018-01-08T04:32:18.028Z,2.90
2018-01-08T04:33:18.020Z,2.93
2018-01-08T04:34:18.046Z,2.90
2018-01-08T04:35:18.000Z,2.98
2018-01-08T04:36:17.990Z,2.93
2018-01-08T04:37:17.981Z,2.90
2018-01-08T04:38:17.972Z,2.85
2018-01-08T04:39:17.960Z,2.83
2018-01-08T04:40:17.952Z,2.89
2018-01-08T04:41:17.942Z,2.80
2018-01-08T04:42:17.940Z,2.86
2018-01-08T04:43:17.929Z,2.77
2018-01-08T04:44:17.914Z,2.87
2018-01-08T04:45:17.907Z,2.82
2018-01-08T04:46:17.895Z,2.89
2018-01-08T04:47:17.886Z,2.80
2018-01-08T04:48:17.876Z,2.86
2018-01-08T04:49:17.873Z,2.86
2018-01-08T04:50:17.857Z,2.85
2018-01-08T04:51:17.848Z,2.86
2018-01-08T04:52:17.839Z,2.87
2018-01-08T04:53:17.830Z,2.87
2018-01-08T04:54:17.819Z,2.92
2018-01-08T04:55:17.807Z,3.00
2018-01-08T04:56:17.798Z,2.83
2018-01-08T04:57:17.790Z,3.03
2018-01-08T04:58:17.779Z,3.03
2018-01-08T04:59:17.771Z,2.87
2018-01-08T05:00:17.762Z,3.00
2018-01-08T05:01:17.751Z,2.98
2018-01-08T05:02:17.742Z,2.97
2018-01-08T05:03:17.734Z,2.89
2018-01-08T05:04:17.724Z,2.98
2018-01-08T05:05:17.714Z,2.98
2018-01-08T05:06:17.706Z,2.98
2018-01-08T05:07:17.694Z,2.98
2018-01-08T05:08:17.688Z,3.00
2018-01-08T05:09:17.675Z,2.86
2018-01-08T05:10:17.668Z,2.95
2018-01-08T05:11:17.659Z,2.89
2018-01-08T05:12:17.648Z,2.86
2018-01-08T05:13:17.664Z,2.83
2018-01-08T05:14:17.631Z,2.86
2018-01-08T05:15:17.619Z,2.85
2018-01-08T05:16:17.610Z,2.87
2018-01-08T05:17:17.601Z,2.90
2018-01-08T05:18:17.589Z,2.85
2018-01-08T05:19:17.581Z,2.83
2018-01-08T05:20:17.572Z,2.82
2018-01-08T05:21:17.563Z,2.77
2018-01-08T05:22:17.555Z,2.75
2018-01-08T05:23:17.560Z,2.83
2018-01-08T05:24:17.535Z,2.85
2018-01-08T05:25:17.524Z,2.87
2018-01-08T05:26:17.512Z,2.87
2018-01-08T05:27:17.504Z,2.87
2018-01-08T05:28:17.492Z,2.83
2018-01-08T05:29:17.486Z,2.86
2018-01-08T05:30:17.476Z,2.89
2018-01-08T05:31:17.468Z,2.97
2018-01-08T05:32:17.453Z,2.92
2018-01-08T05:33:17.461Z,3.03
2018-01-08T05:34:17.436Z,2.97
2018-01-08T05:35:17.427Z,2.97
2018-01-08T05:36:17.418Z,2.89
2018-01-08T05:37:17.409Z,2.86
2018-01-08T05:38:17.399Z,2.80
2018-01-08T05:39:17.388Z,2.87
2018-01-08T05:40:17.379Z,2.86
2018-01-08T05:41:17.369Z,2.79
2018-01-08T05:42:17.360Z,2.83
2018-01-08T05:43:17.349Z,2.79
2018-01-08T05:44:17.340Z,2.89
2018-01-08T05:45:17.335Z,2.87
2018-01-08T05:46:17.323Z,2.74
2018-01-08T05:47:17.311Z,2.87
2018-01-08T05:48:17.302Z,2.86
2018-01-08T05:49:17.292Z,2.97
2018-01-08T05:50:17.284Z,2.98
2018-01-08T05:51:17.271Z,2.97
2018-01-08T05:52:17.263Z,2.93
2018-01-08T05:53:17.255Z,3.01
2018-01-08T05:54:17.245Z,2.97
2018-01-08T05:55:17.237Z,2.86
2018-01-08T05:56:17.225Z,2.95
2018-01-08T05:57:17.217Z,3.00
2018-01-08T05:58:17.206Z,3.03
2018-01-08T05:59:17.197Z,3.01
2018-01-08T06:00:17.194Z,2.95
2018-01-08T06:01:17.180Z,2.97
2018-01-08T06:02:17.169Z,3.00
2018-01-08T06:03:17.160Z,3.01
2018-01-08T06:04:17.151Z,3.04
2018-01-08T06:05:17.144Z,2.97
2018-01-08T06:06:17.137Z,3.03
2018-01-08T06:07:17.121Z,2.93
2018-01-08T06:08:17.114Z,2.93
2018-01-08T06:09:17.103Z,2.92
2018-01-08T06:10:17.095Z,2.80
2018-01-08T06:11:17.084Z,2.98
2018-01-08T06:12:17.076Z,2.92
2018-01-08T06:13:17.068Z,2.85
2018-01-08T06:14:17.058Z,2.86
2018-01-08T06:15:17.047Z,2.83
2018-01-08T06:16:17.038Z,2.83
2018-01-08T06:17:17.028Z,2.87
2018-01-08T06:18:17.020Z,2.86
2018-01-08T06:19:17.008Z,2.86
2018-01-08T06:20:17.001Z,2.83
2018-01-08T06:21:16.990Z,2.85
2018-01-08T06:22:16.983Z,2.92
2018-01-08T06:23:16.971Z,2.82
2018-01-08T06:24:16.963Z,2.86
2018-01-08T06:25:16.953Z,2.87
2018-01-08T06:26:16.942Z,2.87
2018-01-08T06:27:16.933Z,2.90
2018-01-08T06:28:16.922Z,2.87
2018-01-08T06:29:16.917Z,2.80
2018-01-08T06:30:16.903Z,2.83
2018-01-08T06:31:16.895Z,2.97
2018-01-08T06:32:16.890Z,2.93
2018-01-08T06:33:16.876Z,2.97
2018-01-08T06:34:16.867Z,2.97
2018-01-08T06:35:16.857Z,2.95
2018-01-08T06:36:16.847Z,2.90
2018-01-08T06:37:16.839Z,2.90
2018-01-08T06:38:16.828Z,3.00
2018-01-08T06:39:16.817Z,2.98
2018-01-08T06:40:16.810Z,2.98
2018-01-08T06:41:16.799Z,3.00
2018-01-08T06:42:16.794Z,2.95
2018-01-08T06:43:16.798Z,3.05
2018-01-08T06:44:16.774Z,2.98
2018-01-08T06:45:16.761Z,2.98
2018-01-08T06:46:16.753Z,2.95
2018-01-08T06:47:16.743Z,3.01
2018-01-08T06:48:16.739Z,3.01
2018-01-08T06:49:16.729Z,3.04
2018-01-08T06:50:16.715Z,3.05
2018-01-08T06:51:16.708Z,3.00
2018-01-08T06:52:16.697Z,2.92
2018-01-08T06:53:16.688Z,2.89
2018-01-08T06:54:16.679Z,2.95
2018-01-08T06:55:16.669Z,2.93
2018-01-08T06:56:16.659Z,2.95
2018-01-08T06:57:16.655Z,3.04
2018-01-08T06:58:16.655Z,2.97
2018-01-08T06:59:16.632Z,2.92
2018-01-08T07:00:16.632Z,2.95
2018-01-08T07:01:16.615Z,2.97
2018-01-08T07:02:16.605Z,2.93
2018-01-08T07:03:16.597Z,2.86
2018-01-08T07:04:16.583Z,2.90
2018-01-08T07:05:16.574Z,2.92
2018-01-08T07:06:16.566Z,3.03
2018-01-08T07:07:16.555Z,2.93
2018-01-08T07:08:16.555Z,3.00
2018-01-08T07:09:16.536Z,3.04
2018-01-08T07:10:16.547Z,2.90
2018-01-08T07:11:16.518Z,2.93
2018-01-08T07:12:16.509Z,2.92
2018-01-08T07:13:18.385Z,2.92
2018-01-08T07:14:16.489Z,3.00
2018-01-08T07:15:16.513Z,2.97
2018-01-08T07:16:16.473Z,2.95
2018-01-08T07:17:16.463Z,2.97
2018-01-08T07:18:16.451Z,2.95
2018-01-08T07:19:16.444Z,2.98
2018-01-08T07:20:16.432Z,2.98
2018-01-08T07:21:16.425Z,2.97
2018-01-08T07:22:16.414Z,3.00
2018-01-08T07:23:16.409Z,3.08
2018-01-08T07:24:16.396Z,3.04
2018-01-08T07:25:16.400Z,3.04
2018-01-08T07:26:16.381Z,3.16
2018-01-08T07:27:16.381Z,3.05
2018-01-08T07:28:16.357Z,3.03
2018-01-08T07:29:16.427Z,2.98
2018-01-08T07:30:16.349Z,2.95
2018-01-08T07:31:16.333Z,3.00
2018-01-08T07:32:16.322Z,3.10
2018-01-08T07:33:16.311Z,3.08
2018-01-08T07:34:16.338Z,3.11
2018-01-08T07:35:16.295Z,3.04
2018-01-08T07:36:16.292Z,3.13
2018-01-08T07:37:16.275Z,3.13
2018-01-08T07:38:16.277Z,3.19
2018-01-08T07:39:16.256Z,3.21
2018-01-08T07:40:16.246Z,3.16
2018-01-08T07:41:16.242Z,3.13
2018-01-08T07:42:16.230Z,3.07
2018-01-08T07:43:16.302Z,2.98
2018-01-08T07:44:16.209Z,3.05
2018-01-08T07:45:16.200Z,3.05
2018-01-08T07:46:16.191Z,3.05
2018-01-08T07:47:16.183Z,3.05
2018-01-08T07:48:16.205Z,3.03
2018-01-08T07:49:16.165Z,3.00
2018-01-08T07:50:16.176Z,2.95
2018-01-08T07:51:16.145Z,2.93
2018-01-08T07:52:16.137Z,3.04
2018-01-08T07:53:16.128Z,3.04
2018-01-08T07:54:16.120Z,2.98
2018-01-08T07:55:16.109Z,3.04
2018-01-08T07:56:16.100Z,2.90
2018-01-08T07:57:16.091Z,2.93
2018-01-08T07:58:16.082Z,2.95
2018-01-08T07:59:16.070Z,2.97
2018-01-08T08:00:16.063Z,2.98
2018-01-08T08:01:16.052Z,2.90
2018-01-08T08:02:16.045Z,2.89
2018-01-08T08:03:16.035Z,2.85
2018-01-08T08:04:16.190Z,2.80
2018-01-08T08:05:16.017Z,2.82
2018-01-08T08:06:16.006Z,2.83
2018-01-08T08:07:16.125Z,2.83
2018-01-08T08:08:15.987Z,2.82
2018-01-08T08:09:15.981Z,2.80
2018-01-08T08:10:15.967Z,2.75
2018-01-08T08:11:15.958Z,2.77
2018-01-08T08:12:15.948Z,2.80
2018-01-08T08:13:15.938Z,2.83
2018-01-08T08:14:15.928Z,2.82
2018-01-08T08:15:15.925Z,2.75
2018-01-08T08:16:16.031Z,2.86
2018-01-08T08:17:15.901Z,2.86
2018-01-08T08:18:15.895Z,2.77
2018-01-08T08:19:15.897Z,2.75
2018-01-08T08:20:15.880Z,2.72
2018-01-08T08:21:15.862Z,2.69
2018-01-08T08:22:15.873Z,2.74
2018-01-08T08:23:15.850Z,2.80
2018-01-08T08:24:15.835Z,2.79
2018-01-08T08:25:15.823Z,2.85
2018-01-08T08:26:15.817Z,2.87
2018-01-08T08:27:15.805Z,2.82
2018-01-08T08:28:15.796Z,2.87
2018-01-08T08:29:15.907Z,2.89
2018-01-08T08:30:15.777Z,2.87
2018-01-08T08:31:16.021Z,2.90
2018-01-08T08:32:15.759Z,2.90
2018-01-08T08:33:15.750Z,2.86
2018-01-08T08:34:15.747Z,2.83
2018-01-08T08:35:15.730Z,2.85
2018-01-08T08:36:15.721Z,2.72
2018-01-08T08:37:15.709Z,2.86
2018-01-08T08:38:16.565Z,2.86
2018-01-08T08:39:15.839Z,2.87
2018-01-08T08:40:15.682Z,2.85
2018-01-08T08:41:15.675Z,2.83
2018-01-08T08:42:15.668Z,2.86
2018-01-08T08:43:16.030Z,2.89
2018-01-08T08:44:15.644Z,2.89
2018-01-08T08:45:15.785Z,2.98
2018-01-08T08:46:16.282Z,2.90
2018-01-08T08:47:15.624Z,2.97
2018-01-08T08:48:15.605Z,2.97
2018-01-08T08:49:15.597Z,2.95
2018-01-08T08:50:15.766Z,3.07
2018-01-08T08:51:15.580Z,2.97
2018-01-08T08:52:15.575Z,2.95
2018-01-08T08:53:15.599Z,3.05
2018-01-08T08:54:15.554Z,3.04
2018-01-08T08:55:15.543Z,3.05
2018-01-08T08:56:15.541Z,3.03
2018-01-08T08:57:15.524Z,2.98
2018-01-08T08:58:18.757Z,3.03
2018-01-08T08:59:15.502Z,2.93
2018-01-08T09:00:15.493Z,3.01
2018-01-08T09:01:15.487Z,2.98
2018-01-08T09:02:15.475Z,3.00
2018-01-08T09:03:15.471Z,2.92
2018-01-08T09:04:15.459Z,2.98
2018-01-08T09:05:15.446Z,2.90
2018-01-08T09:06:15.438Z,2.97
2018-01-08T09:07:15.429Z,2.98
2018-01-08T09:08:15.418Z,2.92
2018-01-08T09:09:15.428Z,2.87
2018-01-08T09:10:15.400Z,2.95
2018-01-08T09:11:15.391Z,2.97
2018-01-08T09:12:15.380Z,2.95
2018-01-08T09:13:15.394Z,3.07
2018-01-08T09:14:15.369Z,3.08
2018-01-08T09:15:15.357Z,3.10
2018-01-08T09:16:15.343Z,3.11
2018-01-08T09:17:15.337Z,3.19
2018-01-08T09:18:15.325Z,3.10
2018-01-08T09:19:15.320Z,3.10
2018-01-08T09:20:15.329Z,2.97
2018-01-08T09:21:15.296Z,3.04
2018-01-08T09:22:15.321Z,2.97
2018-01-08T09:23:15.298Z,2.95
2018-01-08T09:24:15.290Z,2.95
2018-01-08T09:25:15.261Z,3.05
2018-01-08T09:26:15.250Z,3.08
2018-01-08T09:27:15.242Z,3.13
2018-01-08T09:28:15.234Z,3.13
2018-01-08T09:29:15.224Z,3.21
2018-01-08T09:30:15.214Z,3.28
2018-01-08T09:31:15.213Z,3.14
2018-01-08T09:32:15.193Z,3.19
2018-01-08T09:33:15.187Z,3.13
2018-01-08T09:34:15.180Z,3.14
2018-01-08T09:35:15.166Z,3.11
2018-01-08T09:36:15.159Z,3.10
2018-01-08T09:37:15.151Z,3.19
2018-01-08T09:38:15.140Z,3.21
2018-01-08T09:39:15.152Z,3.26
2018-01-08T09:40:15.124Z,3.23
2018-01-08T09:41:15.338Z,3.31
2018-01-08T09:42:15.103Z,3.26
2018-01-08T09:43:15.093Z,3.31
2018-01-08T09:44:15.098Z,3.28
2018-01-08T09:45:15.077Z,3.28
2018-01-08T09:46:15.067Z,3.23
2018-01-08T09:47:15.057Z,3.25
2018-01-08T09:48:15.049Z,3.32
2018-01-08T09:49:15.040Z,3.26
2018-01-08T09:50:15.032Z,3.21
2018-01-08T09:51:15.025Z,3.18
2018-01-08T09:52:15.013Z,3.26
2018-01-08T09:53:15.005Z,3.13
2018-01-08T09:54:14.998Z,3.29
2018-01-08T09:55:14.983Z,3.26
2018-01-08T09:56:14.974Z,3.26
2018-01-08T09:57:14.973Z,3.26
2018-01-08T09:58:14.958Z,3.29
2018-01-08T09:59:14.948Z,3.28
2018-01-08T10:00:15.521Z,3.18
2018-01-08T10:01:14.931Z,3.16
2018-01-08T10:02:15.471Z,3.28
2018-01-08T10:03:14.912Z,3.16
2018-01-08T10:04:14.913Z,3.13
2018-01-08T10:05:14.893Z,3.31
2018-01-08T10:06:14.896Z,3.29
2018-01-08T10:07:14.876Z,3.26
2018-01-08T10:08:14.866Z,3.22
2018-01-08T10:09:14.871Z,3.19
2018-01-08T10:10:14.848Z,3.14
2018-01-08T10:11:14.839Z,3.19
2018-01-08T10:12:14.829Z,3.14
2018-01-08T10:13:14.820Z,3.10
2018-01-08T10:14:14.849Z,3.08
2018-01-08T10:15:14.804Z,3.05
2018-01-08T10:16:14.797Z,3.13
2018-01-08T10:17:14.785Z,3.16
2018-01-08T10:18:14.784Z,3.16
2018-01-08T10:19:14.766Z,3.18
2018-01-08T10:20:14.781Z,3.14
2018-01-08T10:21:14.752Z,3.14
2018-01-08T10:22:14.740Z,3.14
2018-01-08T10:23:14.728Z,3.26
2018-01-08T10:24:14.726Z,3.18
2018-01-08T10:25:14.716Z,3.31
2018-01-08T10:26:14.703Z,3.28
2018-01-08T10:27:14.690Z,3.19
2018-01-08T10:28:14.685Z,3.01
2018-01-08T10:29:14.676Z,3.05
2018-01-08T10:30:14.669Z,3.10
2018-01-08T10:31:14.658Z,3.05
2018-01-08T10:32:14.651Z,3.04
2018-01-08T10:33:14.642Z,3.07
2018-01-08T10:34:14.630Z,3.04
2018-01-08T10:35:15.574Z,3.08
2018-01-08T10:36:14.616Z,3.05
2018-01-08T10:37:14.611Z,3.08
2018-01-08T10:38:14.599Z,3.01
2018-01-08T10:39:14.586Z,3.07
2018-01-08T10:40:14.587Z,2.98
2018-01-08T10:41:14.568Z,3.01
2018-01-08T10:42:14.556Z,3.07
2018-01-08T10:43:14.545Z,3.07
2018-01-08T10:44:14.537Z,3.11
2018-01-08T10:45:14.556Z,3.03
2018-01-08T10:46:14.527Z,3.05
2018-01-08T10:47:14.512Z,3.04
2018-01-08T10:48:14.500Z,3.11
2018-01-08T10:49:14.492Z,3.07
2018-01-08T10:50:14.485Z,3.05
2018-01-08T10:51:14.514Z,2.97
2018-01-08T10:52:14.467Z,3.00
2018-01-08T10:53:14.450Z,2.90
2018-01-08T10:54:14.456Z,3.08
2018-01-08T10:55:14.483Z,3.04
2018-01-08T10:56:14.425Z,3.05
2018-01-08T10:57:14.414Z,3.11
2018-01-08T10:58:14.407Z,3.07
2018-01-08T10:59:14.396Z,3.10
2018-01-08T11:00:14.388Z,3.16
2018-01-08T11:01:14.384Z,3.10
2018-01-08T11:02:14.369Z,3.10
2018-01-08T11:03:14.359Z,3.16
2018-01-08T11:04:14.348Z,3.18
2018-01-08T11:05:14.357Z,3.25
2018-01-08T11:06:14.345Z,3.18
2018-01-08T11:07:14.321Z,3.23
2018-01-08T11:08:14.361Z,3.29
2018-01-08T11:09:14.307Z,3.19
2018-01-08T11:10:14.315Z,3.26
2018-01-08T11:11:14.284Z,3.22
2018-01-08T11:12:14.275Z,3.32
2018-01-08T11:13:14.295Z,3.36
2018-01-08T11:14:14.260Z,3.41
2018-01-08T11:15:14.250Z,3.37
2018-01-08T11:16:14.243Z,3.40
2018-01-08T11:17:14.234Z,3.40
2018-01-08T11:18:14.223Z,3.34
2018-01-08T11:19:14.213Z,3.36
2018-01-08T11:20:14.250Z,3.48
2018-01-08T11:21:14.200Z,3.40
2018-01-08T11:22:14.188Z,3.40
2018-01-08T11:23:14.180Z,3.36
2018-01-08T11:24:14.170Z,3.26
2018-01-08T11:25:14.162Z,3.31
2018-01-08T11:26:14.156Z,3.29
2018-01-08T11:27:14.141Z,3.21
2018-01-08T11:28:14.170Z,3.26
2018-01-08T11:29:14.124Z,3.21
2018-01-08T11:30:14.116Z,3.26
2018-01-08T11:31:14.104Z,3.29
2018-01-08T11:32:14.098Z,3.34
2018-01-08T11:33:14.091Z,3.36
2018-01-08T11:34:14.078Z,3.42
2018-01-08T11:35:14.098Z,3.37
2018-01-08T11:36:14.062Z,3.34
2018-01-08T11:37:14.051Z,3.28
2018-01-08T11:38:14.043Z,3.25
2018-01-08T11:39:14.037Z,3.28
2018-01-08T11:40:14.027Z,3.29
2018-01-08T11:41:14.016Z,3.37
2018-01-08T11:42:14.006Z,3.26
2018-01-08T11:43:13.996Z,3.41
2018-01-08T11:44:14.058Z,3.44
2018-01-08T11:45:14.108Z,3.36
2018-01-08T11:46:13.985Z,3.34
2018-01-08T11:47:13.993Z,3.37
2018-01-08T11:48:13.960Z,3.37
2018-01-08T11:49:13.944Z,3.34
2018-01-08T11:50:13.936Z,3.29
2018-01-08T11:51:13.935Z,3.18
2018-01-08T11:52:13.917Z,3.16
2018-01-08T11:53:13.923Z,3.10
2018-01-08T11:54:13.903Z,3.19
2018-01-08T11:55:13.889Z,3.16
2018-01-08T11:56:13.882Z,3.14
2018-01-08T11:57:13.869Z,3.19
2018-01-08T11:58:13.863Z,3.10
2018-01-08T11:59:13.853Z,3.28
2018-01-08T12:00:13.846Z,3.26
2018-01-08T12:01:13.835Z,3.29
2018-01-08T12:02:13.829Z,3.34
2018-01-08T12:03:13.814Z,3.31
2018-01-08T12:04:13.833Z,3.28
2018-01-08T12:05:13.800Z,3.36
2018-01-08T12:06:14.586Z,3.37
2018-01-08T12:07:13.777Z,3.48
2018-01-08T12:08:13.771Z,3.55
2018-01-08T12:09:13.763Z,3.50
2018-01-08T12:10:13.752Z,3.62
2018-01-08T12:11:13.741Z,3.60
2018-01-08T12:12:13.736Z,3.59
2018-01-08T12:13:13.726Z,3.55
2018-01-08T12:14:13.714Z,3.55
2018-01-08T12:15:13.716Z,3.55
2018-01-08T12:16:13.699Z,3.62
2018-01-08T12:17:13.693Z,3.63
2018-01-08T12:18:13.684Z,3.77
2018-01-08T12:19:13.672Z,3.78
2018-01-08T12:20:13.661Z,3.80
2018-01-08T12:21:13.658Z,3.87
2018-01-08T12:22:13.644Z,3.92
2018-01-08T12:23:13.636Z,4.01
2018-01-08T12:24:13.629Z,3.98
2018-01-08T12:25:13.621Z,4.01
2018-01-08T12:26:13.611Z,4.13
2018-01-08T12:27:13.600Z,4.13
2018-01-08T12:28:13.606Z,4.17
2018-01-08T12:29:13.584Z,4.16
2018-01-08T12:30:13.580Z,4.13
2018-01-08T12:31:13.573Z,4.08
2018-01-08T12:32:13.562Z,4.06
2018-01-08T12:33:13.555Z,3.99
2018-01-08T12:34:13.543Z,3.98
2018-01-08T12:35:13.537Z,3.91
2018-01-08T12:36:13.526Z,3.95
2018-01-08T12:37:13.517Z,4.08
2018-01-08T12:38:13.511Z,4.01
2018-01-08T12:39:13.502Z,3.95
2018-01-08T12:40:13.493Z,3.99
2018-01-08T12:41:13.484Z,4.01
2018-01-08T12:42:14.144Z,4.04
2018-01-08T12:43:13.472Z,4.08
2018-01-08T12:44:13.495Z,4.02
2018-01-08T12:45:13.449Z,4.01
2018-01-08T12:46:13.453Z,4.01
2018-01-08T12:47:13.434Z,3.99
2018-01-08T12:48:13.424Z,4.12
2018-01-08T12:49:13.427Z,4.04
2018-01-08T12:50:13.409Z,4.04
2018-01-08T12:51:13.399Z,3.98
2018-01-08T12:52:13.390Z,4.01
2018-01-08T12:53:13.384Z,4.06
2018-01-08T12:54:13.375Z,4.05
2018-01-08T12:55:13.365Z,4.02
2018-01-08T12:56:13.356Z,3.99
2018-01-08T12:57:13.379Z,4.02
2018-01-08T12:58:13.338Z,4.01
2018-01-08T12:59:13.332Z,4.01
2018-01-08T13:00:13.325Z,3.98
2018-01-08T13:01:13.344Z,3.98
2018-01-08T13:02:13.307Z,4.04
2018-01-08T13:03:13.295Z,4.13
2018-01-08T13:04:13.313Z,4.02
2018-01-08T13:05:13.282Z,4.04
2018-01-08T13:06:13.270Z,4.17
2018-01-08T13:07:13.265Z,4.19
2018-01-08T13:08:13.289Z,4.16
2018-01-08T13:09:13.262Z,4.16
2018-01-08T13:10:13.242Z,4.01
2018-01-08T13:11:13.234Z,3.95
2018-01-08T13:12:14.068Z,3.94
2018-01-08T13:13:13.216Z,3.99
2018-01-08T13:14:13.258Z,4.01
2018-01-08T13:15:14.121Z,3.98
2018-01-08T13:16:14.081Z,3.96
2018-01-08T13:17:14.292Z,4.01
2018-01-08T13:18:19.182Z,4.04